PILOTS ONLINE: 361    ATC ONLINE: 86

EGHH - Bournemouth Airport

Location

IATA BOH
City Bournemouth
Country  United Kingdom
Latitude 50° 46' 47" N
Longitude 1° 50' 33" W
Elevation 38 ft
Type Large Airport

Runways

08/26 7451 ft / 151 ft

Weather

METAR
2014/07/24 01:50
EGHH 240150Z 04007KT CAVOK 19/15 Q1016
TAF
2013/12/01 21:21
TAF TAF EGHH 010016Z 3021/0106 CNL

Outbound flights

Inbound flights